Time;durP1;ratioP1;P1;durP2;ratioP2;P2;SDS_P1;SDS_P2;PMS_P1;PMS_P2;Temp;Humidity;BMP_temperature;BMP_pressure;BME280_temperature;BME280_humidity;BME280_pressure;Samples;Min_cycle;Max_cycle;Signal;HPM_P1;HPM_P2
2023/04/20 00:02:20;;;;;;;9.55;5.85;;;7.80;1.00;;;;;;5073299;28;20017;-67
2023/04/20 00:04:46;;;;;;;9.68;6.55;;;7.90;99.90;;;;;;5072555;28;20078;-67
2023/04/20 00:07:11;;;;;;;10.90;5.75;;;7.70;99.90;;;;;;5076066;28;20029;-67
2023/04/20 00:09:37;;;;;;;10.25;5.50;;;7.70;99.90;;;;;;5076527;28;20036;-68
2023/04/20 00:12:03;;;;;;;12.63;6.25;;;7.50;99.90;;;;;;5076732;28;20097;-67
2023/04/20 00:14:29;;;;;;;10.68;5.70;;;7.40;99.90;;;;;;5076779;28;20413;-66
2023/04/20 00:16:54;;;;;;;10.63;5.38;;;7.40;99.90;;;;;;5076760;28;20123;-67
2023/04/20 00:19:20;;;;;;;10.35;5.43;;;7.30;99.90;;;;;;5076406;28;20032;-67
2023/04/20 00:21:46;;;;;;;11.98;5.55;;;7.20;99.90;;;;;;5076563;28;20094;-67
2023/04/20 00:24:12;;;;;;;8.45;5.50;;;7.20;1.00;;;;;;5076880;28;20035;-67
2023/04/20 00:26:38;;;;;;;7.32;4.32;;;7.00;1.00;;;;;;5075513;28;20028;-67
2023/04/20 00:29:03;;;;;;;7.70;5.32;;;7.00;1.00;;;;;;5075908;28;20032;-67
2023/04/20 00:31:30;;;;;;;15.43;5.78;;;7.00;1.00;;;;;;5076665;28;20074;-67
2023/04/20 00:33:56;;;;;;;11.57;4.93;;;7.20;99.90;;;;;;5076709;28;20033;-67
2023/04/20 00:36:21;;;;;;;7.35;4.82;;;7.20;99.90;;;;;;5076415;28;20488;-67
2023/04/20 00:38:47;;;;;;;8.00;5.07;;;7.20;99.90;;;;;;5076642;28;20029;-67
2023/04/20 00:41:12;;;;;;;8.13;4.75;;;7.30;99.90;;;;;;5076040;28;20036;-67
2023/04/20 00:43:49;;;;;;;7.63;4.95;;;7.40;99.90;;;;;;5076032;28;20025;-67
2023/04/20 00:46:15;;;;;;;10.50;5.15;;;7.40;99.90;;;;;;5076469;28;20137;-67
2023/04/20 00:48:41;;;;;;;8.63;4.72;;;7.40;99.90;;;;;;5076385;28;20044;-67
2023/04/20 00:51:06;;;;;;;10.98;5.20;;;7.50;99.90;;;;;;5076289;28;20051;-67
2023/04/20 00:53:32;;;;;;;8.90;4.63;;;7.60;74.90;;;;;;5075897;28;20028;-67
2023/04/20 00:55:57;;;;;;;6.53;4.63;;;7.60;92.60;;;;;;5076006;28;20036;-67
2023/04/20 00:58:23;;;;;;;7.60;4.18;;;7.50;99.90;;;;;;5075444;28;20052;-67
2023/04/20 01:00:49;;;;;;;10.23;4.65;;;7.50;99.90;;;;;;5075402;28;20021;-67
2023/04/20 01:03:14;;;;;;;11.00;5.18;;;7.50;99.90;;;;;;5076192;28;20025;-69
2023/04/20 01:05:40;;;;;;;8.82;4.57;;;7.50;99.90;;;;;;5075605;28;20401;-67
2023/04/20 01:08:05;;;;;;;10.10;4.93;;;7.50;59.60;;;;;;5075794;28;20029;-67
2023/04/20 01:10:31;;;;;;;8.23;4.10;;;7.60;50.40;;;;;;5075676;28;20083;-66
2023/04/20 01:12:57;;;;;;;5.93;4.35;;;7.70;15.60;;;;;;5075548;28;20034;-67
2023/04/20 01:15:22;;;;;;;10.75;4.90;;;7.70;11.10;;;;;;5075437;28;20060;-67
2023/04/20 01:17:48;;;;;;;8.23;4.55;;;7.70;56.40;;;;;;5075186;28;20032;-67
2023/04/20 01:20:14;;;;;;;6.18;4.75;;;7.70;30.00;;;;;;5074998;28;20448;-66
2023/04/20 01:22:49;;;;;;;7.72;4.50;;;7.70;34.00;;;;;;5075196;28;20032;-67
2023/04/20 01:25:15;;;;;;;9.20;4.95;;;7.80;75.70;;;;;;5074332;28;20031;-66
2023/04/20 01:27:41;;;;;;;9.05;4.45;;;7.70;99.90;;;;;;5075600;28;20024;-68
2023/04/20 01:30:07;;;;;;;11.10;5.05;;;7.70;99.90;;;;;;5075275;28;20036;-67
2023/04/20 01:32:33;;;;;;;8.85;4.40;;;7.70;99.90;;;;;;5075410;28;20028;-67
2023/04/20 01:34:59;;;;;;;12.43;4.78;;;7.70;99.90;;;;;;5074994;28;20035;-68
2023/04/20 01:37:25;;;;;;;9.57;4.90;;;7.70;99.90;;;;;;5075418;28;20028;-66
2023/04/20 01:39:51;;;;;;;8.20;4.50;;;7.70;99.90;;;;;;5074913;28;20024;-66
2023/04/20 01:42:16;;;;;;;8.00;4.93;;;7.70;99.90;;;;;;5074702;28;20020;-66
2023/04/20 01:44:42;;;;;;;10.77;5.32;;;7.80;99.90;;;;;;5075280;28;20107;-67
2023/04/20 01:47:07;;;;;;;10.32;4.60;;;7.80;99.90;;;;;;5074794;28;20021;-66
2023/04/20 01:49:33;;;;;;;7.55;4.88;;;7.80;99.90;;;;;;5074305;28;20024;-67
2023/04/20 01:51:58;;;;;;;9.18;5.00;;;7.80;1.00;;;;;;5075136;28;20028;-67
2023/04/20 01:54:24;;;;;;;9.77;5.07;;;7.80;1.00;;;;;;5074635;28;20021;-66
2023/04/20 01:56:49;;;;;;;10.38;5.30;;;7.80;1.00;;;;;;5074010;28;20509;-67
2023/04/20 01:59:15;;;;;;;9.38;4.72;;;7.80;99.90;;;;;;5074366;28;20040;-67
2023/04/20 02:01:40;;;;;;;12.52;5.00;;;7.90;99.90;;;;;;5074984;28;20025;-66
2023/04/20 02:04:06;;;;;;;13.00;5.47;;;7.80;99.90;;;;;;5074581;28;20120;-66
2023/04/20 02:06:32;;;;;;;7.72;4.90;;;7.80;99.90;;;;;;5073809;28;20067;-66
2023/04/20 02:08:57;;;;;;;11.30;5.10;;;7.90;1.00;;;;;;5074759;28;20059;-66
2023/04/20 02:11:23;;;;;;;10.65;5.78;;;7.80;1.00;;;;;;5074758;28;20466;-66
2023/04/20 02:13:48;;;;;;;12.68;5.80;;;7.90;75.80;;;;;;5074428;28;20484;-67
2023/04/20 02:16:14;;;;;;;9.63;5.53;;;7.90;99.90;;;;;;5074712;28;20024;-66
2023/04/20 02:18:40;;;;;;;11.82;5.63;;;7.90;1.00;;;;;;5074726;28;20459;-66
2023/04/20 02:21:05;;;;;;;11.70;6.22;;;7.90;99.90;;;;;;5074378;28;20032;-66
2023/04/20 02:23:31;;;;;;;9.07;5.72;;;7.80;99.90;;;;;;5074410;28;20070;-66
2023/04/20 02:25:56;;;;;;;10.65;5.82;;;7.80;99.90;;;;;;5073886;28;20020;-66
2023/04/20 02:28:22;;;;;;;10.20;5.63;;;7.80;81.80;;;;;;5074134;28;20401;-66
2023/04/20 02:30:47;;;;;;;10.10;6.55;;;7.70;99.90;;;;;;5073602;28;20036;-66
2023/04/20 02:33:13;;;;;;;12.00;6.68;;;7.70;1.00;;;;;;5074499;28;20136;-66
2023/04/20 02:35:39;;;;;;;12.75;6.68;;;7.70;99.90;;;;;;5073937;28;20374;-66
2023/04/20 02:38:04;;;;;;;11.05;6.40;;;7.70;99.90;;;;;;5074169;28;20032;-66
2023/04/20 02:40:30;;;;;;;12.45;7.22;;;7.60;99.90;;;;;;5074166;28;20031;-66
2023/04/20 02:42:55;;;;;;;12.25;6.65;;;7.60;99.90;;;;;;5074332;28;20033;-66
2023/04/20 02:45:21;;;;;;;11.18;6.82;;;7.60;99.90;;;;;;5074107;28;20017;-66
2023/04/20 02:47:46;;;;;;;14.35;7.25;;;7.50;1.00;;;;;;5073939;28;20032;-66
2023/04/20 02:50:14;;;;;;;10.27;6.97;;;7.60;1.00;;;;;;5074072;28;20144;-66
2023/04/20 02:52:40;;;;;;;10.20;6.63;;;7.50;1.00;;;;;;5073326;28;20032;-67
2023/04/20 02:55:06;;;;;;;14.45;7.18;;;7.50;39.70;;;;;;5074477;28;20036;-67
2023/04/20 02:57:31;;;;;;;13.98;7.13;;;7.50;99.90;;;;;;5073578;28;20052;-66
2023/04/20 02:59:57;;;;;;;12.73;6.97;;;7.40;99.90;;;;;;5073166;28;20017;-67
2023/04/20 03:02:22;;;;;;;11.32;7.75;;;7.40;99.90;;;;;;5073691;28;20051;-66
2023/04/20 03:04:48;;;;;;;12.48;6.75;;;7.40;99.90;;;;;;5073696;28;20024;-66
2023/04/20 03:07:14;;;;;;;10.18;6.78;;;7.40;99.90;;;;;;5073694;28;20478;-67
2023/04/20 03:09:40;;;;;;;11.55;7.38;;;7.30;99.90;;;;;;5073735;28;20029;-67
2023/04/20 03:12:05;;;;;;;10.63;7.28;;;7.30;99.90;;;;;;5073747;28;20164;-67
2023/04/20 03:14:31;;;;;;;11.93;6.88;;;7.30;1.00;;;;;;5074057;28;20029;-67
2023/04/20 03:16:57;;;;;;;15.75;7.20;;;7.30;1.00;;;;;;5073700;28;20374;-67
2023/04/20 03:19:23;;;;;;;11.07;6.68;;;7.30;1.00;;;;;;5073532;28;20185;-66
2023/04/20 03:21:48;;;;;;;12.27;7.35;;;7.30;1.00;;;;;;5074002;28;20477;-67
2023/04/20 03:24:16;;;;;;;11.50;6.90;;;7.20;1.00;;;;;;5073623;28;20024;-69
2023/04/20 03:26:41;;;;;;;17.30;6.80;;;7.20;1.00;;;;;;5073824;28;20073;-67
2023/04/20 03:29:07;;;;;;;9.65;6.13;;;7.20;1.00;;;;;;5073653;28;20024;-67
2023/04/20 03:31:33;;;;;;;12.45;7.10;;;7.20;1.00;;;;;;5072915;28;20522;-67
2023/04/20 03:33:58;;;;;;;12.75;6.60;;;7.30;1.00;;;;;;5073888;28;20052;-66
2023/04/20 03:36:24;;;;;;;11.45;6.55;;;7.20;1.00;;;;;;5073813;28;20370;-67
2023/04/20 03:38:49;;;;;;;10.05;6.28;;;7.20;1.00;;;;;;5073538;28;20040;-67
2023/04/20 03:41:15;;;;;;;9.07;6.43;;;7.20;1.00;;;;;;5075935;28;20489;-66
2023/04/20 03:43:40;;;;;;;12.63;6.78;;;7.20;1.00;;;;;;5076936;28;20047;-66
2023/04/20 03:46:06;;;;;;;8.80;6.00;;;7.20;1.00;;;;;;5077522;28;20112;-66
2023/04/20 03:48:32;;;;;;;10.18;6.20;;;7.20;1.00;;;;;;5076568;28;20021;-67
2023/04/20 03:50:58;;;;;;;13.10;6.35;;;7.20;1.00;;;;;;5077421;28;20078;-67
2023/04/20 03:53:25;;;;;;;7.05;5.82;;;7.10;1.00;;;;;;5077460;28;20029;-66
2023/04/20 03:55:50;;;;;;;11.73;6.00;;;7.10;1.00;;;;;;5076815;28;20032;-66
2023/04/20 03:58:16;;;;;;;12.18;6.18;;;7.10;1.00;;;;;;5076212;28;20076;-67
2023/04/20 04:00:42;;;;;;;9.27;5.72;;;7.10;1.00;;;;;;5076766;28;20060;-67
2023/04/20 04:03:08;;;;;;;11.63;6.75;;;7.10;1.00;;;;;;5076528;28;20494;-67
2023/04/20 04:05:34;;;;;;;9.77;5.90;;;7.10;45.70;;;;;;5077145;28;20024;-67
2023/04/20 04:07:59;;;;;;;10.32;6.53;;;7.10;45.40;;;;;;5076128;28;20016;-67
2023/04/20 04:10:25;;;;;;;10.57;6.38;;;7.00;69.90;;;;;;5076855;28;20489;-67
2023/04/20 04:12:51;;;;;;;10.45;6.25;;;7.00;87.80;;;;;;5076658;28;20028;-66
2023/04/20 04:15:18;;;;;;;8.35;6.65;;;7.00;99.90;;;;;;5077040;28;20038;-67
2023/04/20 04:17:44;;;;;;;10.45;6.15;;;7.00;99.90;;;;;;5076067;28;20036;-67
2023/04/20 04:20:10;;;;;;;10.52;6.93;;;7.00;99.90;;;;;;5075677;28;20029;-66
2023/04/20 04:22:36;;;;;;;9.90;6.55;;;7.00;99.90;;;;;;5076380;28;20047;-67
2023/04/20 04:25:02;;;;;;;9.55;6.90;;;7.00;99.90;;;;;;5076549;28;20063;-67
2023/04/20 04:27:33;;;;;;;10.20;6.60;;;7.00;99.90;;;;;;5076356;28;20027;-67
2023/04/20 04:29:59;;;;;;;9.23;6.38;;;7.00;99.90;;;;;;5076818;28;20032;-67
2023/04/20 04:32:25;;;;;;;9.45;6.43;;;7.00;99.90;;;;;;5076746;28;20113;-67
2023/04/20 04:34:51;;;;;;;9.85;7.40;;;7.00;99.90;;;;;;5076480;28;20477;-66
2023/04/20 04:37:17;;;;;;;11.05;7.25;;;7.00;99.90;;;;;;5075747;28;20025;-67
2023/04/20 04:39:43;;;;;;;10.80;7.13;;;6.90;99.90;;;;;;5076530;28;20039;-67
2023/04/20 04:42:08;;;;;;;9.80;7.32;;;6.90;99.90;;;;;;5076179;28;20045;-67
2023/04/20 04:44:34;;;;;;;13.57;7.53;;;7.00;99.90;;;;;;5076041;28;20025;-67
2023/04/20 04:47:01;;;;;;;11.52;7.35;;;6.90;99.90;;;;;;5076401;28;20032;-67
2023/04/20 04:49:28;;;;;;;11.65;7.60;;;7.00;99.90;;;;;;5076182;28;20374;-67
2023/04/20 04:51:53;;;;;;;14.10;7.88;;;6.90;99.90;;;;;;5076006;28;20036;-67
2023/04/20 04:54:19;;;;;;;11.13;6.85;;;6.90;99.90;;;;;;5075355;28;20024;-66
2023/04/20 04:56:44;;;;;;;10.52;7.60;;;6.90;99.90;;;;;;5076195;28;20047;-67
2023/04/20 04:59:10;;;;;;;16.65;7.82;;;6.90;99.90;;;;;;5075078;28;20123;-67
2023/04/20 05:01:35;;;;;;;11.05;7.07;;;6.90;99.90;;;;;;5075290;28;20060;-67
2023/04/20 05:04:01;;;;;;;16.67;8.15;;;6.90;99.90;;;;;;5076125;28;20028;-67
2023/04/20 05:06:26;;;;;;;12.02;8.55;;;6.80;1.00;;;;;;5075644;28;20051;-67
2023/04/20 05:08:52;;;;;;;12.98;8.40;;;6.80;1.00;;;;;;5075803;28;20032;-67
2023/04/20 05:11:18;;;;;;;11.60;8.48;;;6.70;1.00;;;;;;5075439;28;20111;-67
2023/04/20 05:13:43;;;;;;;18.52;9.20;;;6.60;1.00;;;;;;5075919;28;20087;-67
2023/04/20 05:16:09;;;;;;;11.50;8.50;;;6.60;1.00;;;;;;5075212;28;20020;-67
2023/04/20 05:18:34;;;;;;;12.52;7.95;;;6.70;1.00;;;;;;5075485;28;20040;-67
2023/04/20 05:21:00;;;;;;;11.50;8.63;;;6.60;1.00;;;;;;5075424;28;20032;-67
2023/04/20 05:23:26;;;;;;;12.88;8.45;;;6.60;1.00;;;;;;5075303;28;20032;-67
2023/04/20 05:25:51;;;;;;;14.30;8.63;;;6.60;1.00;;;;;;5075561;28;20028;-67
2023/04/20 05:28:17;;;;;;;13.95;8.57;;;6.60;1.00;;;;;;5074892;28;20032;-67
2023/04/20 05:30:43;;;;;;;13.00;8.65;;;6.60;1.00;;;;;;5075239;28;20402;-67
2023/04/20 05:33:08;;;;;;;18.95;10.10;;;6.60;1.00;;;;;;5075526;28;20036;-67
2023/04/20 05:35:34;;;;;;;18.90;9.30;;;6.60;8.20;;;;;;5075423;28;20020;-66
2023/04/20 05:38:02;;;;;;;15.15;8.68;;;6.50;1.10;;;;;;5074927;28;20378;-66
2023/04/20 05:40:28;;;;;;;11.32;8.80;;;6.40;8.70;;;;;;5074702;28;20029;-67
2023/04/20 05:42:54;;;;;;;13.43;8.93;;;6.40;17.40;;;;;;5075359;28;20374;-67
2023/04/20 05:45:19;;;;;;;16.63;8.30;;;6.40;31.20;;;;;;5074004;28;20023;-66
2023/04/20 05:48:00;;;;;;;13.98;9.25;;;6.30;35.00;;;;;;5075028;28;20085;-67
2023/04/20 05:50:26;;;;;;;12.88;9.43;;;;;;;;;;5074804;28;20526;-66
2023/04/20 05:52:52;;;;;;;12.70;9.20;;;;;;;;;;5074084;28;20174;-66
2023/04/20 05:55:19;;;;;;;13.48;8.85;;;;;;;;;;5068250;28;20040;-67
2023/04/20 05:57:45;;;;;;;14.73;8.77;;;;;;;;;;5061691;28;20598;-71
2023/04/20 06:00:13;;;;;;;16.73;9.18;;;6.50;23.10;;;;;;5069221;28;20232;-67
2023/04/20 06:02:39;;;;;;;15.30;8.85;;;6.30;29.00;;;;;;5071272;28;20047;-67
2023/04/20 06:05:05;;;;;;;14.73;8.93;;;6.50;34.30;;;;;;5072351;28;20401;-64
2023/04/20 06:07:31;;;;;;;13.38;8.80;;;6.40;37.50;;;;;;5074014;28;20115;-65
2023/04/20 06:09:56;;;;;;;15.57;9.13;;;5.90;36.30;;;;;;5071425;28;20628;-66
2023/04/20 06:12:22;;;;;;;14.38;9.23;;;6.40;36.80;;;;;;5072532;28;22148;-67
2023/04/20 06:14:48;;;;;;;15.05;9.50;;;6.40;43.40;;;;;;5072717;28;20505;-65
2023/04/20 06:17:13;;;;;;;13.75;9.65;;;6.30;43.70;;;;;;5071146;28;20048;-65
2023/04/20 06:19:39;;;;;;;16.85;10.23;;;6.40;43.50;;;;;;5071193;28;20028;-65
2023/04/20 06:22:07;;;;;;;17.52;10.60;;;6.50;45.40;;;;;;5068867;28;20073;-65
2023/04/20 06:24:33;;;;;;;18.88;9.90;;;;;;;;;;5069376;28;20028;-66
2023/04/20 06:26:59;;;;;;;18.05;10.07;;;6.70;24.20;;;;;;5073957;28;20046;-65
2023/04/20 06:29:25;;;;;;;18.63;9.80;;;6.80;15.60;;;;;;5072496;28;20490;-65
2023/04/20 06:31:50;;;;;;;15.88;9.07;;;6.90;7.60;;;;;;5071007;28;20402;-65
2023/04/20 06:34:15;;;;;;;14.45;9.38;;;7.00;1.00;;;;;;5069563;28;20449;-63
2023/04/20 06:36:42;;;;;;;12.80;8.70;;;7.10;1.00;;;;;;5072117;28;20108;-65
2023/04/20 06:39:10;;;;;;;15.13;9.43;;;7.00;1.00;;;;;;5073151;28;20044;-66
2023/04/20 06:41:37;;;;;;;15.85;9.50;;;7.30;1.00;;;;;;5071928;28;20033;-64
2023/04/20 06:44:03;;;;;;;14.38;9.77;;;7.20;1.00;;;;;;5072566;28;20028;-67
2023/04/20 06:46:28;;;;;;;16.25;9.88;;;7.30;1.00;;;;;;5072559;28;20029;-66
2023/04/20 06:48:54;;;;;;;15.13;9.45;;;7.20;1.00;;;;;;5073463;28;20020;-66
2023/04/20 06:51:19;;;;;;;15.27;9.65;;;7.30;1.00;;;;;;5073898;28;20028;-65
2023/04/20 06:53:45;;;;;;;13.52;9.65;;;7.30;1.00;;;;;;5069876;28;20488;-65
2023/04/20 06:56:11;;;;;;;14.65;10.23;;;7.30;1.00;;;;;;5058370;28;20041;-65
2023/04/20 06:58:36;;;;;;;17.15;10.05;;;7.20;1.00;;;;;;5056730;28;20094;-65
2023/04/20 07:01:02;;;;;;;14.88;10.15;;;7.20;1.00;;;;;;5072008;28;20043;-65
2023/04/20 07:03:28;;;;;;;14.38;9.85;;;7.30;1.00;;;;;;5072219;28;20115;-64
2023/04/20 07:05:53;;;;;;;19.55;10.73;;;7.30;1.00;;;;;;5072667;28;20025;-66
2023/04/20 07:08:19;;;;;;;16.65;11.38;;;7.30;1.00;;;;;;5071989;28;20031;-66
2023/04/20 07:10:44;;;;;;;18.33;10.15;;;7.30;1.00;;;;;;5073550;28;20042;-65
2023/04/20 07:13:10;;;;;;;16.95;11.30;;;7.30;1.00;;;;;;5071232;28;20059;-65
2023/04/20 07:15:35;;;;;;;17.20;11.55;;;7.20;1.00;;;;;;5076330;28;20032;-64
2023/04/20 07:18:01;;;;;;;17.13;10.85;;;7.30;1.00;;;;;;5075331;28;20033;-64
2023/04/20 07:20:27;;;;;;;20.27;12.00;;;7.10;1.00;;;;;;5075944;28;20368;-65
2023/04/20 07:22:52;;;;;;;17.73;12.15;;;7.10;1.00;;;;;;5075086;28;20028;-65
2023/04/20 07:25:18;;;;;;;18.63;12.65;;;7.10;1.00;;;;;;5076910;28;20024;-66
2023/04/20 07:27:44;;;;;;;18.80;11.43;;;7.10;1.00;;;;;;5078017;28;20077;-65
2023/04/20 07:30:10;;;;;;;17.73;12.02;;;7.00;1.00;;;;;;5075230;28;20032;-66
2023/04/20 07:32:37;;;;;;;20.50;12.10;;;7.00;1.00;;;;;;5075371;28;20536;-64
2023/04/20 07:35:03;;;;;;;20.02;12.23;;;7.10;1.00;;;;;;5075341;28;20071;-66
2023/04/20 07:37:30;;;;;;;19.63;12.68;;;7.10;1.00;;;;;;5075202;28;20059;-66
2023/04/20 07:39:55;;;;;;;18.38;11.60;;;7.20;1.00;;;;;;5074912;28;20035;-66
2023/04/20 07:42:21;;;;;;;22.27;12.55;;;7.20;1.00;;;;;;5071789;28;20390;-66
2023/04/20 07:44:47;;;;;;;19.85;11.63;;;7.30;1.00;;;;;;5076723;28;20370;-68
2023/04/20 07:47:13;;;;;;;20.65;11.65;;;7.30;1.00;;;;;;5077231;28;20136;-68
2023/04/20 07:49:40;;;;;;;21.90;12.70;;;7.30;1.00;;;;;;5074892;28;20046;-64
2023/04/20 07:52:06;;;;;;;19.88;12.23;;;7.40;1.00;;;;;;5077273;28;20032;-64
2023/04/20 07:54:32;;;;;;;20.95;12.43;;;7.40;1.00;;;;;;5076813;28;20032;-64
2023/04/20 07:56:58;;;;;;;18.27;13.18;;;7.40;1.00;;;;;;5076298;28;20500;-64
2023/04/20 07:59:24;;;;;;;19.95;12.20;;;7.40;1.00;;;;;;5075137;28;20036;-64
2023/04/20 08:01:49;;;;;;;19.50;12.40;;;7.30;1.00;;;;;;5075526;28;20039;-65
2023/04/20 08:04:16;;;;;;;19.63;13.02;;;7.30;1.00;;;;;;5076421;28;20025;-65
2023/04/20 08:06:41;;;;;;;21.95;13.65;;;7.30;1.00;;;;;;5075841;28;20107;-63
2023/04/20 08:09:07;;;;;;;18.45;12.45;;;7.40;1.00;;;;;;5075640;28;20056;-64
2023/04/20 08:11:33;;;;;;;21.95;13.32;;;7.40;1.00;;;;;;5077083;28;20064;-65
2023/04/20 08:13:59;;;;;;;19.83;13.07;;;7.30;1.00;;;;;;5076390;28;20119;-65
2023/04/20 08:16:24;;;;;;;19.90;13.20;;;7.40;1.00;;;;;;5076606;28;20464;-66
2023/04/20 08:18:50;;;;;;;18.67;13.07;;;7.40;1.00;;;;;;5075446;28;20115;-66
2023/04/20 08:21:15;;;;;;;23.08;14.32;;;7.40;1.00;;;;;;5076553;28;20086;-65
2023/04/20 08:23:41;;;;;;;18.45;12.55;;;7.30;1.00;;;;;;5076297;28;20021;-66
2023/04/20 08:26:07;;;;;;;20.33;13.43;;;7.40;1.00;;;;;;5075230;28;20021;-66
2023/04/20 08:28:32;;;;;;;21.45;13.02;;;7.40;1.00;;;;;;5075415;28;20032;-66
2023/04/20 08:30:58;;;;;;;22.42;14.63;;;7.50;1.00;;;;;;5076512;28;20375;-65
2023/04/20 08:33:23;;;;;;;22.70;13.35;;;7.50;1.00;;;;;;5076479;28;20036;-66
2023/04/20 08:35:50;;;;;;;22.05;14.07;;;7.50;1.00;;;;;;5075581;28;20119;-65
2023/04/20 08:38:16;;;;;;;16.33;8.70;;;7.40;1.00;;;;;;5075789;28;20026;-65
2023/04/20 08:40:42;;;;;;;13.35;8.80;;;;;;;;;;5075997;28;20115;-66
2023/04/20 08:43:08;;;;;;;13.52;9.40;;;5.90;67.70;;;;;;5074583;28;20029;-66
2023/04/20 08:45:34;;;;;;;17.20;11.02;;;;;;;;;;5074778;28;20032;-66
2023/04/20 08:48:06;;;;;;;19.35;11.65;;;5.70;99.90;;;;;;5076024;28;20056;-66
2023/04/20 08:50:33;;;;;;;19.83;12.20;;;5.60;99.90;;;;;;5075154;28;20116;-66
2023/04/20 08:52:59;;;;;;;20.05;13.48;;;;;;;;;;5075875;28;20037;-65
2023/04/20 08:55:25;;;;;;;22.20;13.25;;;;;;;;;;5075598;28;20024;-66
2023/04/20 08:57:51;;;;;;;25.92;15.20;;;;;;;;;;5072555;28;20052;-66
2023/04/20 09:00:17;;;;;;;31.77;16.08;;;6.10;99.90;;;;;;5073315;28;20393;-68
2023/04/20 09:03:00;;;;;;;26.67;16.05;;;6.10;99.90;;;;;;5072365;28;20485;-64
2023/04/20 09:05:27;;;;;;;30.13;18.50;;;6.30;99.90;;;;;;5075641;28;20545;-64
2023/04/20 09:07:55;;;;;;;33.15;19.70;;;6.50;99.90;;;;;;5075186;28;20020;-64
2023/04/20 09:10:23;;;;;;;33.95;19.73;;;7.00;99.90;;;;;;5074093;28;20060;-65
2023/04/20 09:12:48;;;;;;;34.90;20.80;;;7.10;99.90;;;;;;5074928;28;20039;-65
2023/04/20 09:15:30;;;;;;;31.27;20.05;;;8.20;99.90;;;;;;5072949;28;20127;-65
2023/04/20 09:17:56;;;;;;;21.35;15.13;;;9.60;99.90;;;;;;5075806;28;20038;-65
2023/04/20 09:20:31;;;;;;;18.85;13.10;;;9.80;58.60;;;;;;5075319;28;20036;-65
2023/04/20 09:22:57;;;;;;;19.58;14.90;;;9.70;13.60;;;;;;5075624;28;20541;-65
2023/04/20 09:25:25;;;;;;;17.73;14.85;;;9.80;67.30;;;;;;5072211;28;20103;-67
2023/04/20 09:28:00;;;;;;;18.58;13.38;;;10.30;34.60;;;;;;5075067;28;20025;-65
2023/04/20 09:30:37;;;;;;;16.20;11.55;;;10.00;1.00;;;;;;5073921;28;20035;-66
2023/04/20 09:33:03;;;;;;;13.07;10.38;;;9.50;1.00;;;;;;5075362;28;20374;-66
2023/04/20 09:35:30;;;;;;;15.27;11.98;;;9.30;1.00;;;;;;5075349;28;20028;-65
2023/04/20 09:37:55;;;;;;;14.90;10.82;;;9.50;1.00;;;;;;5074253;28;20028;-65
2023/04/20 09:40:23;;;;;;;15.35;9.82;;;9.40;1.00;;;;;;5073341;28;20040;-65
2023/04/20 09:42:51;;;;;;;14.10;10.70;;;9.10;1.00;;;;;;5075034;28;20040;-65
2023/04/20 09:45:17;;;;;;;13.50;10.88;;;8.80;99.90;;;;;;5074783;28;20036;-65
2023/04/20 09:47:43;;;;;;;20.17;12.43;;;8.60;1.00;;;;;;5074445;28;20032;-65
2023/04/20 09:50:10;;;;;;;15.98;12.38;;;8.50;1.00;;;;;;5073220;28;20485;-65
2023/04/20 09:52:37;;;;;;;16.13;12.40;;;8.60;1.10;;;;;;5074163;28;20393;-66
2023/04/20 09:55:05;;;;;;;16.15;12.70;;;8.80;1.00;;;;;;5074085;28;20071;-65
2023/04/20 09:57:31;;;;;;;15.27;11.32;;;9.00;1.00;;;;;;5074008;28;20049;-65
2023/04/20 09:59:58;;;;;;;13.32;11.25;;;8.70;1.00;;;;;;5073041;28;20032;-65
2023/04/20 10:02:24;;;;;;;13.40;10.38;;;8.50;99.90;;;;;;5073168;28;20032;-64
2023/04/20 10:04:58;;;;;;;14.27;11.30;;;8.50;1.00;;;;;;5073827;28;20028;-64
2023/04/20 10:07:26;;;;;;;13.23;10.35;;;8.60;1.00;;;;;;5073503;28;20054;-64
2023/04/20 10:10:13;;;;;;;16.13;11.40;;;8.50;99.90;;;;;;5073158;28;20024;-64
2023/04/20 10:12:47;;;;;;;14.48;11.30;;;8.50;1.00;;;;;;5073861;28;20029;-64
2023/04/20 10:15:12;;;;;;;14.32;10.85;;;8.60;1.00;;;;;;5074219;28;20021;-65
2023/04/20 10:17:38;;;;;;;14.63;11.32;;;8.80;99.90;;;;;;5073941;28;20021;-64
2023/04/20 10:20:04;;;;;;;14.02;10.20;;;8.90;99.90;;;;;;5074205;28;20033;-65
2023/04/20 10:22:32;;;;;;;11.43;9.35;;;9.00;99.90;;;;;;5073477;28;20025;-64
2023/04/20 10:25:01;;;;;;;11.55;9.35;;;9.30;99.90;;;;;;5071408;28;20477;-64
2023/04/20 10:27:27;;;;;;;15.93;9.40;;;9.60;86.30;;;;;;5073930;28;20035;-65
2023/04/20 10:29:53;;;;;;;12.50;9.77;;;9.60;1.00;;;;;;5071989;28;20024;-65
2023/04/20 10:32:26;;;;;;;14.57;10.07;;;9.50;1.00;;;;;;5072998;28;20028;-64
2023/04/20 10:35:10;;;;;;;12.27;9.55;;;10.00;1.00;;;;;;5074166;28;20366;-64
2023/04/20 10:37:45;;;;;;;;;;;10.00;99.90;;;;;;5072289;28;20032;-63
2023/04/20 10:40:11;;;;;;;14.30;8.98;;;10.20;1.00;;;;;;5073556;28;20358;-63
2023/04/20 10:42:42;;;;;;;13.88;9.70;;;10.10;99.90;;;;;;5074480;28;20021;-64
2023/04/20 10:45:09;;;;;;;13.05;8.85;;;10.00;1.00;;;;;;5073686;28;20043;-63
2023/04/20 10:47:36;;;;;;;12.85;9.48;;;10.00;1.00;;;;;;5073014;28;20017;-64
2023/04/20 10:50:08;;;;;;;11.35;9.15;;;10.10;2.70;;;;;;5073811;28;20157;-65
2023/04/20 10:52:35;;;;;;;15.50;9.25;;;10.00;99.90;;;;;;5073792;28;20040;-64
2023/04/20 10:55:01;;;;;;;11.02;8.48;;;10.00;1.00;;;;;;5071200;28;20515;-65
2023/04/20 10:57:27;;;;;;;11.55;9.23;;;10.00;1.00;;;;;;5072607;28;20059;-65
2023/04/20 10:59:53;;;;;;;11.63;9.60;;;9.90;99.90;;;;;;5073122;28;20044;-64
2023/04/20 11:02:19;;;;;;;12.98;9.95;;;10.00;1.00;;;;;;5072592;28;20086;-64
2023/04/20 11:04:45;;;;;;;14.27;9.48;;;10.10;99.90;;;;;;5071939;28;20036;-65
2023/04/20 11:07:12;;;;;;;12.70;9.85;;;9.90;99.90;;;;;;5072142;28;20032;-65
2023/04/20 11:09:38;;;;;;;13.38;10.07;;;9.70;99.90;;;;;;5073319;28;20021;-65
2023/04/20 11:12:07;;;;;;;13.18;10.25;;;9.70;99.90;;;;;;5071861;28;20033;-64
2023/04/20 11:14:37;;;;;;;13.63;10.13;;;9.80;99.90;;;;;;5073798;28;20074;-64
2023/04/20 11:17:03;;;;;;;14.23;10.50;;;9.70;99.90;;;;;;5071974;28;20115;-67
2023/04/20 11:19:31;;;;;;;14.75;11.32;;;9.70;99.90;;;;;;5070582;28;20501;-68
2023/04/20 11:21:58;;;;;;;16.73;10.63;;;9.90;99.90;;;;;;5072168;28;20029;-69
2023/04/20 11:24:26;;;;;;;12.98;10.48;;;10.30;1.00;;;;;;5072670;28;20029;-67
2023/04/20 11:26:53;;;;;;;13.63;10.52;;;10.50;1.00;;;;;;5073717;28;20520;-67
2023/04/20 11:29:38;;;;;;;16.40;11.07;;;10.50;99.90;;;;;;5073638;28;20029;-67
2023/04/20 11:32:07;;;;;;;14.43;10.85;;;10.40;99.90;;;;;;5073641;28;20165;-67
2023/04/20 11:34:34;;;;;;;14.85;11.32;;;10.50;99.90;;;;;;5072981;28;20151;-67
2023/04/20 11:37:15;;;;;;;12.20;10.57;;;10.80;99.90;;;;;;5073105;28;20032;-68
2023/04/20 11:39:40;;;;;;;17.17;11.65;;;10.70;18.80;;;;;;5072675;28;20024;-68
2023/04/20 11:42:06;;;;;;;16.27;11.18;;;10.40;97.60;;;;;;5072933;28;20488;-67
2023/04/20 11:44:32;;;;;;;15.70;11.65;;;10.40;1.00;;;;;;5073165;28;20086;-68
2023/04/20 11:46:58;;;;;;;20.23;11.32;;;10.50;1.00;;;;;;5073022;28;20115;-68
2023/04/20 11:49:25;;;;;;;13.15;11.38;;;11.10;1.00;;;;;;5073159;28;20378;-67
2023/04/20 11:51:51;;;;;;;17.25;12.13;;;11.00;99.90;;;;;;5070971;28;20111;-68
2023/04/20 11:54:18;;;;;;;15.65;11.55;;;11.70;1.00;;;;;;5071555;28;20073;-65
2023/04/20 11:56:43;;;;;;;16.27;11.23;;;11.70;76.70;;;;;;5072557;28;20437;-66
2023/04/20 11:59:10;;;;;;;13.48;10.70;;;11.30;99.90;;;;;;5071002;28;20076;-65
2023/04/20 12:01:36;;;;;;;15.70;11.75;;;11.00;99.90;;;;;;5073441;28;20115;-65
2023/04/20 12:04:02;;;;;;;16.63;11.80;;;10.90;99.90;;;;;;5077018;28;20521;-65
2023/04/20 12:06:28;;;;;;;16.73;12.25;;;11.20;99.90;;;;;;5076280;28;20065;-65
2023/04/20 12:08:55;;;;;;;15.38;10.70;;;11.70;99.90;;;;;;5077023;28;20036;-65
2023/04/20 12:11:21;;;;;;;15.55;12.32;;;11.60;99.90;;;;;;5076042;28;20032;-65
2023/04/20 12:13:46;;;;;;;15.88;12.05;;;11.60;99.90;;;;;;5076821;28;20462;-66
2023/04/20 12:16:12;;;;;;;17.38;12.02;;;11.70;1.00;;;;;;5074857;28;20024;-64
2023/04/20 12:18:37;;;;;;;17.17;11.45;;;12.00;99.90;;;;;;5075362;28;20041;-65
2023/04/20 12:21:04;;;;;;;16.83;12.75;;;11.90;1.00;;;;;;5076259;28;20382;-64
2023/04/20 12:23:29;;;;;;;16.55;12.50;;;11.40;99.90;;;;;;5076311;28;20025;-64
2023/04/20 12:25:55;;;;;;;16.40;11.40;;;11.30;99.90;;;;;;5074736;28;20470;-64
2023/04/20 12:28:20;;;;;;;15.25;11.40;;;11.80;99.90;;;;;;5076156;28;20029;-65
2023/04/20 12:30:46;;;;;;;17.35;11.90;;;12.30;99.90;;;;;;5076114;28;20086;-65
2023/04/20 12:33:11;;;;;;;17.48;12.27;;;12.60;1.00;;;;;;5076702;28;20066;-65
2023/04/20 12:35:37;;;;;;;14.32;11.73;;;12.40;1.00;;;;;;5075176;28;20036;-65
2023/04/20 12:38:02;;;;;;;15.05;11.68;;;12.30;1.00;;;;;;5076684;28;20047;-65
2023/04/20 12:40:28;;;;;;;16.42;12.50;;;11.80;1.00;;;;;;5074598;28;20493;-65
2023/04/20 12:42:54;;;;;;;16.13;11.55;;;12.10;1.00;;;;;;5075228;28;20040;-68
2023/04/20 12:45:19;;;;;;;13.93;10.68;;;11.90;1.00;;;;;;5073955;28;20055;-67
2023/04/20 12:47:45;;;;;;;15.48;11.32;;;12.10;99.90;;;;;;5073970;28;20474;-68